sensor_id;sensor_type;location;lat;lon;timestamp;P1;durP1;ratioP1;P2;durP2;ratioP2
5758;SDS011;2904;48.788;9.196;2022-08-19T00:01:37;16.52;;;12.75;;
5758;SDS011;2904;48.788;9.196;2022-08-19T00:04:08;15.40;;;12.45;;
5758;SDS011;2904;48.788;9.196;2022-08-19T00:06:35;15.10;;;12.37;;
5758;SDS011;2904;48.788;9.196;2022-08-19T00:09:04;16.27;;;12.18;;
5758;SDS011;2904;48.788;9.196;2022-08-19T00:11:33;16.33;;;13.40;;
5758;SDS011;2904;48.788;9.196;2022-08-19T00:14:01;17.65;;;13.02;;
5758;SDS011;2904;48.788;9.196;2022-08-19T00:16:27;17.15;;;13.73;;
5758;SDS011;2904;48.788;9.196;2022-08-19T00:18:54;17.45;;;13.75;;
5758;SDS011;2904;48.788;9.196;2022-08-19T00:21:23;15.18;;;12.02;;
5758;SDS011;2904;48.788;9.196;2022-08-19T00:23:49;15.45;;;12.45;;
5758;SDS011;2904;48.788;9.196;2022-08-19T00:26:15;18.05;;;13.40;;
5758;SDS011;2904;48.788;9.196;2022-08-19T00:28:40;17.17;;;13.18;;
5758;SDS011;2904;48.788;9.196;2022-08-19T00:31:07;19.95;;;13.10;;
5758;SDS011;2904;48.788;9.196;2022-08-19T00:33:34;17.48;;;12.80;;
5758;SDS011;2904;48.788;9.196;2022-08-19T00:36:00;17.60;;;13.57;;
5758;SDS011;2904;48.788;9.196;2022-08-19T00:38:29;18.37;;;13.52;;
5758;SDS011;2904;48.788;9.196;2022-08-19T00:40:55;19.50;;;13.62;;
5758;SDS011;2904;48.788;9.196;2022-08-19T00:43:21;19.27;;;13.82;;
5758;SDS011;2904;48.788;9.196;2022-08-19T00:45:49;18.70;;;13.48;;
5758;SDS011;2904;48.788;9.196;2022-08-19T00:48:15;18.90;;;13.77;;
5758;SDS011;2904;48.788;9.196;2022-08-19T00:50:41;18.40;;;13.18;;
5758;SDS011;2904;48.788;9.196;2022-08-19T00:53:09;18.58;;;13.13;;
5758;SDS011;2904;48.788;9.196;2022-08-19T00:55:36;18.60;;;13.38;;
5758;SDS011;2904;48.788;9.196;2022-08-19T00:58:06;17.98;;;13.38;;
5758;SDS011;2904;48.788;9.196;2022-08-19T01:00:35;15.93;;;12.75;;
5758;SDS011;2904;48.788;9.196;2022-08-19T01:03:06;21.90;;;13.00;;
5758;SDS011;2904;48.788;9.196;2022-08-19T01:05:34;19.08;;;13.18;;
5758;SDS011;2904;48.788;9.196;2022-08-19T01:08:01;18.92;;;13.50;;
5758;SDS011;2904;48.788;9.196;2022-08-19T01:10:30;21.05;;;13.20;;
5758;SDS011;2904;48.788;9.196;2022-08-19T01:12:59;19.60;;;13.38;;
5758;SDS011;2904;48.788;9.196;2022-08-19T01:15:29;16.98;;;13.00;;
5758;SDS011;2904;48.788;9.196;2022-08-19T01:17:57;17.15;;;12.82;;
5758;SDS011;2904;48.788;9.196;2022-08-19T01:20:30;20.55;;;13.30;;
5758;SDS011;2904;48.788;9.196;2022-08-19T01:22:58;18.35;;;13.48;;
5758;SDS011;2904;48.788;9.196;2022-08-19T01:25:35;17.12;;;12.95;;
5758;SDS011;2904;48.788;9.196;2022-08-19T01:28:20;17.35;;;12.70;;
5758;SDS011;2904;48.788;9.196;2022-08-19T01:30:53;16.58;;;12.90;;
5758;SDS011;2904;48.788;9.196;2022-08-19T01:33:20;20.23;;;14.32;;
5758;SDS011;2904;48.788;9.196;2022-08-19T01:35:46;17.00;;;12.93;;
5758;SDS011;2904;48.788;9.196;2022-08-19T01:38:22;20.23;;;14.18;;
5758;SDS011;2904;48.788;9.196;2022-08-19T01:40:49;20.65;;;14.30;;
5758;SDS011;2904;48.788;9.196;2022-08-19T01:43:15;19.95;;;14.20;;
5758;SDS011;2904;48.788;9.196;2022-08-19T01:45:43;19.95;;;13.93;;
5758;SDS011;2904;48.788;9.196;2022-08-19T01:48:08;20.02;;;13.23;;
5758;SDS011;2904;48.788;9.196;2022-08-19T01:50:34;19.80;;;14.20;;
5758;SDS011;2904;48.788;9.196;2022-08-19T01:53:01;18.02;;;14.02;;
5758;SDS011;2904;48.788;9.196;2022-08-19T01:55:29;21.25;;;14.50;;
5758;SDS011;2904;48.788;9.196;2022-08-19T01:57:59;20.35;;;14.70;;
5758;SDS011;2904;48.788;9.196;2022-08-19T02:00:28;21.45;;;15.40;;
5758;SDS011;2904;48.788;9.196;2022-08-19T02:02:56;20.58;;;14.87;;
5758;SDS011;2904;48.788;9.196;2022-08-19T02:05:21;20.52;;;15.20;;
5758;SDS011;2904;48.788;9.196;2022-08-19T02:07:48;23.38;;;15.40;;
5758;SDS011;2904;48.788;9.196;2022-08-19T02:10:15;22.35;;;15.00;;
5758;SDS011;2904;48.788;9.196;2022-08-19T02:12:43;23.20;;;15.32;;
5758;SDS011;2904;48.788;9.196;2022-08-19T02:15:09;19.98;;;14.48;;
5758;SDS011;2904;48.788;9.196;2022-08-19T02:17:36;21.83;;;15.13;;
5758;SDS011;2904;48.788;9.196;2022-08-19T02:20:03;22.73;;;15.38;;
5758;SDS011;2904;48.788;9.196;2022-08-19T02:22:30;21.08;;;14.65;;
5758;SDS011;2904;48.788;9.196;2022-08-19T02:24:56;21.83;;;15.95;;
5758;SDS011;2904;48.788;9.196;2022-08-19T02:27:22;22.85;;;16.20;;
5758;SDS011;2904;48.788;9.196;2022-08-19T02:29:48;25.52;;;17.00;;
5758;SDS011;2904;48.788;9.196;2022-08-19T02:32:16;21.45;;;16.45;;
5758;SDS011;2904;48.788;9.196;2022-08-19T02:34:44;22.48;;;16.55;;
5758;SDS011;2904;48.788;9.196;2022-08-19T02:37:10;23.60;;;16.70;;
5758;SDS011;2904;48.788;9.196;2022-08-19T02:40:52;24.05;;;16.30;;
5758;SDS011;2904;48.788;9.196;2022-08-19T02:43:20;23.70;;;15.43;;
5758;SDS011;2904;48.788;9.196;2022-08-19T02:45:47;21.85;;;16.05;;
5758;SDS011;2904;48.788;9.196;2022-08-19T02:48:15;24.40;;;17.15;;
5758;SDS011;2904;48.788;9.196;2022-08-19T02:50:42;21.70;;;16.30;;
5758;SDS011;2904;48.788;9.196;2022-08-19T02:53:08;28.15;;;17.27;;
5758;SDS011;2904;48.788;9.196;2022-08-19T02:55:35;25.77;;;17.73;;
5758;SDS011;2904;48.788;9.196;2022-08-19T02:58:00;24.10;;;17.75;;
5758;SDS011;2904;48.788;9.196;2022-08-19T03:00:26;25.62;;;16.98;;
5758;SDS011;2904;48.788;9.196;2022-08-19T03:02:52;28.75;;;18.75;;
5758;SDS011;2904;48.788;9.196;2022-08-19T03:05:18;23.55;;;16.73;;
5758;SDS011;2904;48.788;9.196;2022-08-19T03:07:44;27.13;;;17.98;;
5758;SDS011;2904;48.788;9.196;2022-08-19T03:10:11;28.10;;;18.95;;
5758;SDS011;2904;48.788;9.196;2022-08-19T03:12:38;26.15;;;18.50;;
5758;SDS011;2904;48.788;9.196;2022-08-19T03:15:05;25.25;;;17.48;;
5758;SDS011;2904;48.788;9.196;2022-08-19T03:17:32;25.58;;;18.67;;
5758;SDS011;2904;48.788;9.196;2022-08-19T03:19:59;28.70;;;19.98;;
5758;SDS011;2904;48.788;9.196;2022-08-19T03:22:25;26.45;;;19.35;;
5758;SDS011;2904;48.788;9.196;2022-08-19T03:24:51;30.60;;;19.55;;
5758;SDS011;2904;48.788;9.196;2022-08-19T03:27:17;25.83;;;18.85;;
5758;SDS011;2904;48.788;9.196;2022-08-19T03:29:42;27.98;;;19.77;;
5758;SDS011;2904;48.788;9.196;2022-08-19T03:32:08;31.60;;;20.52;;
5758;SDS011;2904;48.788;9.196;2022-08-19T03:34:36;27.65;;;20.75;;
5758;SDS011;2904;48.788;9.196;2022-08-19T03:37:04;27.77;;;19.77;;
5758;SDS011;2904;48.788;9.196;2022-08-19T03:39:32;30.83;;;20.73;;
5758;SDS011;2904;48.788;9.196;2022-08-19T03:41:58;27.62;;;19.85;;
5758;SDS011;2904;48.788;9.196;2022-08-19T03:44:27;28.62;;;20.17;;
5758;SDS011;2904;48.788;9.196;2022-08-19T03:46:55;27.50;;;19.92;;
5758;SDS011;2904;48.788;9.196;2022-08-19T03:49:23;27.70;;;20.12;;
5758;SDS011;2904;48.788;9.196;2022-08-19T03:51:52;29.30;;;19.60;;
5758;SDS011;2904;48.788;9.196;2022-08-19T03:54:19;29.73;;;20.15;;
5758;SDS011;2904;48.788;9.196;2022-08-19T03:56:47;30.35;;;20.83;;
5758;SDS011;2904;48.788;9.196;2022-08-19T03:59:16;25.15;;;19.27;;
5758;SDS011;2904;48.788;9.196;2022-08-19T04:01:44;28.17;;;19.87;;
5758;SDS011;2904;48.788;9.196;2022-08-19T04:04:10;28.75;;;20.15;;
5758;SDS011;2904;48.788;9.196;2022-08-19T04:06:37;27.65;;;20.45;;
5758;SDS011;2904;48.788;9.196;2022-08-19T04:09:04;25.60;;;19.70;;
5758;SDS011;2904;48.788;9.196;2022-08-19T04:11:33;27.00;;;19.62;;
5758;SDS011;2904;48.788;9.196;2022-08-19T04:14:04;26.85;;;19.10;;
5758;SDS011;2904;48.788;9.196;2022-08-19T04:16:29;26.27;;;19.37;;
5758;SDS011;2904;48.788;9.196;2022-08-19T04:18:56;33.83;;;20.23;;
5758;SDS011;2904;48.788;9.196;2022-08-19T04:21:23;31.00;;;22.80;;
5758;SDS011;2904;48.788;9.196;2022-08-19T04:23:50;31.73;;;22.87;;
5758;SDS011;2904;48.788;9.196;2022-08-19T04:26:18;33.30;;;22.33;;
5758;SDS011;2904;48.788;9.196;2022-08-19T04:28:46;29.73;;;21.52;;
5758;SDS011;2904;48.788;9.196;2022-08-19T04:31:19;34.22;;;22.65;;
5758;SDS011;2904;48.788;9.196;2022-08-19T04:33:47;30.50;;;22.08;;
5758;SDS011;2904;48.788;9.196;2022-08-19T04:36:17;36.35;;;23.05;;
5758;SDS011;2904;48.788;9.196;2022-08-19T04:38:46;32.88;;;22.23;;
5758;SDS011;2904;48.788;9.196;2022-08-19T04:41:13;34.15;;;23.23;;
5758;SDS011;2904;48.788;9.196;2022-08-19T04:43:58;30.50;;;21.95;;
5758;SDS011;2904;48.788;9.196;2022-08-19T04:46:24;29.33;;;22.02;;
5758;SDS011;2904;48.788;9.196;2022-08-19T04:48:50;32.70;;;21.92;;
5758;SDS011;2904;48.788;9.196;2022-08-19T04:51:15;33.78;;;22.33;;
5758;SDS011;2904;48.788;9.196;2022-08-19T04:53:41;30.00;;;20.83;;
5758;SDS011;2904;48.788;9.196;2022-08-19T04:56:11;31.60;;;21.42;;
5758;SDS011;2904;48.788;9.196;2022-08-19T04:58:39;34.15;;;21.90;;
5758;SDS011;2904;48.788;9.196;2022-08-19T05:01:07;33.35;;;23.00;;
5758;SDS011;2904;48.788;9.196;2022-08-19T05:03:37;31.77;;;22.02;;
5758;SDS011;2904;48.788;9.196;2022-08-19T05:06:10;33.47;;;21.45;;
5758;SDS011;2904;48.788;9.196;2022-08-19T05:08:38;30.37;;;21.73;;
5758;SDS011;2904;48.788;9.196;2022-08-19T05:11:27;33.13;;;23.42;;
5758;SDS011;2904;48.788;9.196;2022-08-19T05:13:55;31.73;;;20.80;;
5758;SDS011;2904;48.788;9.196;2022-08-19T05:16:21;30.98;;;22.33;;
5758;SDS011;2904;48.788;9.196;2022-08-19T05:18:49;31.08;;;22.23;;
5758;SDS011;2904;48.788;9.196;2022-08-19T05:21:34;30.80;;;20.40;;
5758;SDS011;2904;48.788;9.196;2022-08-19T05:24:19;37.20;;;22.33;;
5758;SDS011;2904;48.788;9.196;2022-08-19T05:26:46;29.12;;;19.98;;
5758;SDS011;2904;48.788;9.196;2022-08-19T05:29:14;30.02;;;21.80;;
5758;SDS011;2904;48.788;9.196;2022-08-19T05:31:42;29.63;;;20.37;;
5758;SDS011;2904;48.788;9.196;2022-08-19T05:34:08;29.15;;;21.12;;
5758;SDS011;2904;48.788;9.196;2022-08-19T05:36:39;30.23;;;21.80;;
5758;SDS011;2904;48.788;9.196;2022-08-19T05:39:08;33.83;;;22.05;;
5758;SDS011;2904;48.788;9.196;2022-08-19T05:41:36;33.92;;;23.45;;
5758;SDS011;2904;48.788;9.196;2022-08-19T05:44:05;31.52;;;22.52;;
5758;SDS011;2904;48.788;9.196;2022-08-19T05:46:34;27.33;;;22.02;;
5758;SDS011;2904;48.788;9.196;2022-08-19T05:49:02;32.47;;;22.25;;
5758;SDS011;2904;48.788;9.196;2022-08-19T05:51:30;34.45;;;22.13;;
5758;SDS011;2904;48.788;9.196;2022-08-19T05:53:56;34.60;;;22.05;;
5758;SDS011;2904;48.788;9.196;2022-08-19T05:56:22;29.85;;;21.87;;
5758;SDS011;2904;48.788;9.196;2022-08-19T05:58:48;30.80;;;21.87;;
5758;SDS011;2904;48.788;9.196;2022-08-19T06:01:15;32.35;;;21.98;;
5758;SDS011;2904;48.788;9.196;2022-08-19T06:03:43;31.95;;;22.35;;
5758;SDS011;2904;48.788;9.196;2022-08-19T06:06:09;28.33;;;21.08;;
5758;SDS011;2904;48.788;9.196;2022-08-19T06:08:38;29.02;;;21.02;;
5758;SDS011;2904;48.788;9.196;2022-08-19T06:11:25;31.77;;;22.33;;
5758;SDS011;2904;48.788;9.196;2022-08-19T06:14:05;31.90;;;21.92;;
5758;SDS011;2904;48.788;9.196;2022-08-19T06:16:34;29.90;;;20.95;;
5758;SDS011;2904;48.788;9.196;2022-08-19T06:19:03;32.20;;;21.67;;
5758;SDS011;2904;48.788;9.196;2022-08-19T06:21:31;30.55;;;20.30;;
5758;SDS011;2904;48.788;9.196;2022-08-19T06:23:58;29.02;;;20.00;;
5758;SDS011;2904;48.788;9.196;2022-08-19T06:26:24;32.47;;;21.58;;
5758;SDS011;2904;48.788;9.196;2022-08-19T06:28:51;33.70;;;20.55;;
5758;SDS011;2904;48.788;9.196;2022-08-19T06:31:17;33.93;;;22.93;;
5758;SDS011;2904;48.788;9.196;2022-08-19T06:33:46;30.20;;;21.27;;
5758;SDS011;2904;48.788;9.196;2022-08-19T06:36:19;31.50;;;20.42;;
5758;SDS011;2904;48.788;9.196;2022-08-19T06:38:49;31.75;;;21.65;;
5758;SDS011;2904;48.788;9.196;2022-08-19T06:41:14;32.17;;;21.30;;
5758;SDS011;2904;48.788;9.196;2022-08-19T06:43:40;30.58;;;21.58;;
5758;SDS011;2904;48.788;9.196;2022-08-19T06:46:11;31.45;;;22.10;;
5758;SDS011;2904;48.788;9.196;2022-08-19T06:48:39;32.40;;;23.02;;
5758;SDS011;2904;48.788;9.196;2022-08-19T06:51:05;29.52;;;21.50;;
5758;SDS011;2904;48.788;9.196;2022-08-19T06:53:31;28.92;;;21.83;;
5758;SDS011;2904;48.788;9.196;2022-08-19T06:55:57;33.67;;;22.90;;
5758;SDS011;2904;48.788;9.196;2022-08-19T06:58:25;30.23;;;22.23;;
5758;SDS011;2904;48.788;9.196;2022-08-19T07:00:51;30.95;;;22.00;;
5758;SDS011;2904;48.788;9.196;2022-08-19T07:03:17;35.30;;;22.70;;
5758;SDS011;2904;48.788;9.196;2022-08-19T07:05:42;33.67;;;22.52;;
5758;SDS011;2904;48.788;9.196;2022-08-19T07:08:08;27.98;;;21.65;;
5758;SDS011;2904;48.788;9.196;2022-08-19T07:10:35;30.65;;;21.87;;
5758;SDS011;2904;48.788;9.196;2022-08-19T07:13:06;33.13;;;21.45;;
5758;SDS011;2904;48.788;9.196;2022-08-19T07:15:33;34.22;;;22.15;;
5758;SDS011;2904;48.788;9.196;2022-08-19T07:17:58;31.02;;;22.00;;
5758;SDS011;2904;48.788;9.196;2022-08-19T07:20:24;26.70;;;20.42;;
5758;SDS011;2904;48.788;9.196;2022-08-19T07:22:49;32.83;;;21.80;;
5758;SDS011;2904;48.788;9.196;2022-08-19T07:25:15;29.95;;;21.30;;
5758;SDS011;2904;48.788;9.196;2022-08-19T07:27:42;28.27;;;20.08;;
5758;SDS011;2904;48.788;9.196;2022-08-19T07:30:09;29.02;;;21.10;;
5758;SDS011;2904;48.788;9.196;2022-08-19T07:32:36;29.33;;;21.37;;
5758;SDS011;2904;48.788;9.196;2022-08-19T07:35:02;29.15;;;20.52;;
5758;SDS011;2904;48.788;9.196;2022-08-19T07:37:29;27.98;;;20.60;;
5758;SDS011;2904;48.788;9.196;2022-08-19T07:39:55;33.10;;;21.15;;
5758;SDS011;2904;48.788;9.196;2022-08-19T07:42:20;29.48;;;21.33;;
5758;SDS011;2904;48.788;9.196;2022-08-19T07:44:46;28.90;;;19.92;;
5758;SDS011;2904;48.788;9.196;2022-08-19T07:47:12;30.48;;;20.62;;
5758;SDS011;2904;48.788;9.196;2022-08-19T07:49:40;26.12;;;19.77;;
5758;SDS011;2904;48.788;9.196;2022-08-19T07:52:06;28.83;;;19.62;;
5758;SDS011;2904;48.788;9.196;2022-08-19T07:54:35;30.12;;;21.23;;
5758;SDS011;2904;48.788;9.196;2022-08-19T07:57:03;30.75;;;20.15;;
5758;SDS011;2904;48.788;9.196;2022-08-19T07:59:29;37.35;;;19.73;;
5758;SDS011;2904;48.788;9.196;2022-08-19T08:01:56;27.00;;;19.70;;
5758;SDS011;2904;48.788;9.196;2022-08-19T08:04:24;28.02;;;19.83;;
5758;SDS011;2904;48.788;9.196;2022-08-19T08:07:08;29.70;;;18.77;;
5758;SDS011;2904;48.788;9.196;2022-08-19T08:09:52;29.17;;;19.87;;
5758;SDS011;2904;48.788;9.196;2022-08-19T08:12:20;28.83;;;20.35;;
5758;SDS011;2904;48.788;9.196;2022-08-19T08:14:50;28.17;;;20.73;;
5758;SDS011;2904;48.788;9.196;2022-08-19T08:17:18;30.48;;;20.30;;
5758;SDS011;2904;48.788;9.196;2022-08-19T08:19:47;27.92;;;19.83;;
5758;SDS011;2904;48.788;9.196;2022-08-19T08:22:16;31.17;;;21.12;;
5758;SDS011;2904;48.788;9.196;2022-08-19T08:25:06;30.95;;;20.62;;
5758;SDS011;2904;48.788;9.196;2022-08-19T08:27:37;28.27;;;21.02;;
5758;SDS011;2904;48.788;9.196;2022-08-19T08:30:08;29.27;;;20.60;;
5758;SDS011;2904;48.788;9.196;2022-08-19T08:32:36;31.45;;;20.50;;
5758;SDS011;2904;48.788;9.196;2022-08-19T08:35:03;34.60;;;19.87;;
5758;SDS011;2904;48.788;9.196;2022-08-19T08:37:30;31.15;;;19.48;;
5758;SDS011;2904;48.788;9.196;2022-08-19T08:39:56;30.73;;;19.87;;
5758;SDS011;2904;48.788;9.196;2022-08-19T08:42:27;27.55;;;20.58;;
5758;SDS011;2904;48.788;9.196;2022-08-19T08:45:13;27.92;;;20.23;;
5758;SDS011;2904;48.788;9.196;2022-08-19T08:47:41;29.95;;;20.67;;
5758;SDS011;2904;48.788;9.196;2022-08-19T08:50:13;29.15;;;20.55;;
5758;SDS011;2904;48.788;9.196;2022-08-19T08:52:48;28.27;;;19.58;;
5758;SDS011;2904;48.788;9.196;2022-08-19T08:55:19;25.30;;;19.08;;
5758;SDS011;2904;48.788;9.196;2022-08-19T09:01:11;30.77;;;19.55;;
5758;SDS011;2904;48.788;9.196;2022-08-19T09:03:37;27.73;;;20.42;;
5758;SDS011;2904;48.788;9.196;2022-08-19T09:11:19;25.83;;;18.25;;
5758;SDS011;2904;48.788;9.196;2022-08-19T09:14:02;26.17;;;18.95;;
5758;SDS011;2904;48.788;9.196;2022-08-19T09:16:43;26.10;;;18.27;;
5758;SDS011;2904;48.788;9.196;2022-08-19T09:19:09;25.42;;;18.98;;
5758;SDS011;2904;48.788;9.196;2022-08-19T09:21:35;25.05;;;17.33;;
5758;SDS011;2904;48.788;9.196;2022-08-19T09:24:02;26.77;;;17.23;;
5758;SDS011;2904;48.788;9.196;2022-08-19T09:26:29;23.65;;;17.73;;
5758;SDS011;2904;48.788;9.196;2022-08-19T09:28:59;28.62;;;18.25;;
5758;SDS011;2904;48.788;9.196;2022-08-19T09:31:27;26.40;;;17.95;;
5758;SDS011;2904;48.788;9.196;2022-08-19T09:33:54;27.00;;;18.02;;
5758;SDS011;2904;48.788;9.196;2022-08-19T09:36:24;22.70;;;16.12;;
5758;SDS011;2904;48.788;9.196;2022-08-19T09:38:52;27.92;;;17.23;;
5758;SDS011;2904;48.788;9.196;2022-08-19T09:41:19;28.55;;;18.50;;
5758;SDS011;2904;48.788;9.196;2022-08-19T09:43:48;21.52;;;16.98;;
5758;SDS011;2904;48.788;9.196;2022-08-19T09:46:20;22.67;;;16.55;;
5758;SDS011;2904;48.788;9.196;2022-08-19T09:48:48;23.83;;;16.70;;
5758;SDS011;2904;48.788;9.196;2022-08-19T09:51:16;21.30;;;15.77;;
5758;SDS011;2904;48.788;9.196;2022-08-19T09:53:51;20.10;;;15.40;;
5758;SDS011;2904;48.788;9.196;2022-08-19T09:56:19;20.85;;;14.45;;
5758;SDS011;2904;48.788;9.196;2022-08-19T09:58:47;21.95;;;15.50;;
5758;SDS011;2904;48.788;9.196;2022-08-19T10:01:17;20.35;;;13.93;;
5758;SDS011;2904;48.788;9.196;2022-08-19T10:03:46;20.02;;;13.88;;
5758;SDS011;2904;48.788;9.196;2022-08-19T10:06:14;18.92;;;14.13;;
5758;SDS011;2904;48.788;9.196;2022-08-19T10:08:40;21.90;;;14.43;;
5758;SDS011;2904;48.788;9.196;2022-08-19T10:11:06;18.87;;;14.05;;
5758;SDS011;2904;48.788;9.196;2022-08-19T10:13:33;22.65;;;12.82;;
5758;SDS011;2904;48.788;9.196;2022-08-19T10:16:22;21.90;;;14.20;;
5758;SDS011;2904;48.788;9.196;2022-08-19T10:18:50;20.90;;;13.20;;
5758;SDS011;2904;48.788;9.196;2022-08-19T10:21:27;22.08;;;13.73;;
5758;SDS011;2904;48.788;9.196;2022-08-19T10:23:55;21.08;;;13.65;;
5758;SDS011;2904;48.788;9.196;2022-08-19T10:26:27;18.45;;;13.57;;
5758;SDS011;2904;48.788;9.196;2022-08-19T10:28:55;18.25;;;12.68;;
5758;SDS011;2904;48.788;9.196;2022-08-19T10:31:22;22.05;;;14.02;;
5758;SDS011;2904;48.788;9.196;2022-08-19T10:33:50;20.17;;;13.48;;
5758;SDS011;2904;48.788;9.196;2022-08-19T10:36:23;19.80;;;12.52;;
5758;SDS011;2904;48.788;9.196;2022-08-19T10:38:51;14.63;;;12.15;;
5758;SDS011;2904;48.788;9.196;2022-08-19T10:41:23;19.25;;;14.05;;
5758;SDS011;2904;48.788;9.196;2022-08-19T10:43:54;17.92;;;12.37;;
5758;SDS011;2904;48.788;9.196;2022-08-19T10:46:23;16.70;;;12.37;;
5758;SDS011;2904;48.788;9.196;2022-08-19T10:48:51;17.80;;;11.88;;
5758;SDS011;2904;48.788;9.196;2022-08-19T10:51:18;17.55;;;12.15;;
5758;SDS011;2904;48.788;9.196;2022-08-19T10:54:03;19.70;;;11.27;;
5758;SDS011;2904;48.788;9.196;2022-08-19T10:56:29;17.00;;;11.95;;
5758;SDS011;2904;48.788;9.196;2022-08-19T10:59:14;15.35;;;10.43;;
5758;SDS011;2904;48.788;9.196;2022-08-19T11:01:42;14.25;;;10.32;;
5758;SDS011;2904;48.788;9.196;2022-08-19T11:04:09;16.17;;;10.52;;
5758;SDS011;2904;48.788;9.196;2022-08-19T11:06:36;15.50;;;9.85;;
5758;SDS011;2904;48.788;9.196;2022-08-19T11:09:03;13.60;;;10.43;;
5758;SDS011;2904;48.788;9.196;2022-08-19T11:11:30;14.10;;;10.52;;
5758;SDS011;2904;48.788;9.196;2022-08-19T11:13:57;12.10;;;9.35;;
5758;SDS011;2904;48.788;9.196;2022-08-19T11:16:24;15.20;;;10.30;;
5758;SDS011;2904;48.788;9.196;2022-08-19T11:18:52;17.00;;;10.25;;
5758;SDS011;2904;48.788;9.196;2022-08-19T11:21:24;14.68;;;10.05;;
5758;SDS011;2904;48.788;9.196;2022-08-19T11:23:52;12.20;;;9.40;;
5758;SDS011;2904;48.788;9.196;2022-08-19T11:26:20;13.35;;;9.35;;
5758;SDS011;2904;48.788;9.196;2022-08-19T11:28:48;13.77;;;9.68;;
5758;SDS011;2904;48.788;9.196;2022-08-19T11:31:18;10.60;;;8.48;;
5758;SDS011;2904;48.788;9.196;2022-08-19T11:33:44;13.52;;;8.35;;
5758;SDS011;2904;48.788;9.196;2022-08-19T11:36:11;12.73;;;9.00;;
5758;SDS011;2904;48.788;9.196;2022-08-19T11:38:37;11.68;;;9.05;;
5758;SDS011;2904;48.788;9.196;2022-08-19T11:41:05;11.25;;;8.60;;
5758;SDS011;2904;48.788;9.196;2022-08-19T11:43:32;14.68;;;8.63;;
5758;SDS011;2904;48.788;9.196;2022-08-19T11:45:58;11.23;;;7.97;;
5758;SDS011;2904;48.788;9.196;2022-08-19T11:48:25;9.60;;;8.07;;
5758;SDS011;2904;48.788;9.196;2022-08-19T11:50:53;11.15;;;8.18;;
5758;SDS011;2904;48.788;9.196;2022-08-19T11:53:22;10.02;;;7.80;;
5758;SDS011;2904;48.788;9.196;2022-08-19T11:55:49;9.57;;;7.53;;
5758;SDS011;2904;48.788;9.196;2022-08-19T11:58:20;13.23;;;8.48;;
5758;SDS011;2904;48.788;9.196;2022-08-19T12:00:47;9.48;;;8.27;;
5758;SDS011;2904;48.788;9.196;2022-08-19T12:03:13;9.30;;;7.95;;
5758;SDS011;2904;48.788;9.196;2022-08-19T12:05:40;10.15;;;8.10;;
5758;SDS011;2904;48.788;9.196;2022-08-19T12:08:06;10.00;;;7.60;;
5758;SDS011;2904;48.788;9.196;2022-08-19T12:10:32;11.55;;;8.50;;
5758;SDS011;2904;48.788;9.196;2022-08-19T12:12:59;12.07;;;9.05;;
5758;SDS011;2904;48.788;9.196;2022-08-19T12:15:26;17.05;;;11.75;;
5758;SDS011;2904;48.788;9.196;2022-08-19T12:17:54;19.45;;;14.85;;
5758;SDS011;2904;48.788;9.196;2022-08-19T12:20:22;19.33;;;13.95;;
5758;SDS011;2904;48.788;9.196;2022-08-19T12:22:50;19.00;;;14.27;;
5758;SDS011;2904;48.788;9.196;2022-08-19T12:25:16;19.58;;;14.45;;
5758;SDS011;2904;48.788;9.196;2022-08-19T12:27:42;18.42;;;13.40;;
5758;SDS011;2904;48.788;9.196;2022-08-19T12:30:09;19.15;;;14.00;;
5758;SDS011;2904;48.788;9.196;2022-08-19T12:32:36;24.35;;;14.77;;
5758;SDS011;2904;48.788;9.196;2022-08-19T12:35:02;20.73;;;14.50;;
5758;SDS011;2904;48.788;9.196;2022-08-19T12:37:28;19.17;;;14.00;;
5758;SDS011;2904;48.788;9.196;2022-08-19T12:39:56;18.77;;;12.93;;
5758;SDS011;2904;48.788;9.196;2022-08-19T12:42:22;18.08;;;14.13;;
5758;SDS011;2904;48.788;9.196;2022-08-19T12:44:47;18.42;;;14.30;;
5758;SDS011;2904;48.788;9.196;2022-08-19T12:47:13;19.50;;;14.05;;
5758;SDS011;2904;48.788;9.196;2022-08-19T12:49:39;19.12;;;12.77;;
5758;SDS011;2904;48.788;9.196;2022-08-19T12:52:06;16.27;;;11.57;;
5758;SDS011;2904;48.788;9.196;2022-08-19T12:54:37;17.58;;;11.65;;
5758;SDS011;2904;48.788;9.196;2022-08-19T12:57:06;14.25;;;11.40;;
5758;SDS011;2904;48.788;9.196;2022-08-19T12:59:33;17.45;;;11.65;;
5758;SDS011;2904;48.788;9.196;2022-08-19T13:02:02;17.50;;;12.02;;
5758;SDS011;2904;48.788;9.196;2022-08-19T13:04:32;15.57;;;11.05;;
5758;SDS011;2904;48.788;9.196;2022-08-19T13:07:01;15.70;;;11.63;;
5758;SDS011;2904;48.788;9.196;2022-08-19T13:09:27;16.37;;;11.80;;
5758;SDS011;2904;48.788;9.196;2022-08-19T13:11:53;14.65;;;11.38;;
5758;SDS011;2904;48.788;9.196;2022-08-19T13:14:18;12.73;;;10.85;;
5758;SDS011;2904;48.788;9.196;2022-08-19T13:16:44;18.45;;;14.18;;
5758;SDS011;2904;48.788;9.196;2022-08-19T13:19:10;19.15;;;13.73;;
5758;SDS011;2904;48.788;9.196;2022-08-19T13:21:36;21.05;;;14.75;;
5758;SDS011;2904;48.788;9.196;2022-08-19T13:24:02;19.73;;;16.20;;
5758;SDS011;2904;48.788;9.196;2022-08-19T13:26:28;19.48;;;15.57;;
5758;SDS011;2904;48.788;9.196;2022-08-19T13:28:54;25.10;;;17.42;;
5758;SDS011;2904;48.788;9.196;2022-08-19T13:31:39;22.42;;;17.67;;
5758;SDS011;2904;48.788;9.196;2022-08-19T13:34:29;23.17;;;17.20;;
5758;SDS011;2904;48.788;9.196;2022-08-19T13:36:58;22.13;;;17.02;;
5758;SDS011;2904;48.788;9.196;2022-08-19T13:39:30;28.85;;;17.05;;
5758;SDS011;2904;48.788;9.196;2022-08-19T13:41:57;24.60;;;18.00;;
5758;SDS011;2904;48.788;9.196;2022-08-19T13:44:25;25.73;;;18.25;;
5758;SDS011;2904;48.788;9.196;2022-08-19T13:46:54;24.58;;;19.40;;
5758;SDS011;2904;48.788;9.196;2022-08-19T13:49:31;31.67;;;21.90;;
5758;SDS011;2904;48.788;9.196;2022-08-19T13:51:57;28.00;;;21.02;;
5758;SDS011;2904;48.788;9.196;2022-08-19T13:54:23;33.45;;;23.15;;
5758;SDS011;2904;48.788;9.196;2022-08-19T13:56:48;33.83;;;22.75;;
5758;SDS011;2904;48.788;9.196;2022-08-19T13:59:14;32.50;;;23.35;;
5758;SDS011;2904;48.788;9.196;2022-08-19T14:01:40;36.08;;;25.33;;
5758;SDS011;2904;48.788;9.196;2022-08-19T14:04:06;37.15;;;25.73;;
5758;SDS011;2904;48.788;9.196;2022-08-19T14:06:32;32.50;;;23.92;;
5758;SDS011;2904;48.788;9.196;2022-08-19T14:08:59;34.28;;;23.80;;
5758;SDS011;2904;48.788;9.196;2022-08-19T14:11:24;32.35;;;23.35;;
5758;SDS011;2904;48.788;9.196;2022-08-19T14:13:51;35.35;;;23.80;;
5758;SDS011;2904;48.788;9.196;2022-08-19T14:16:16;32.65;;;24.17;;
5758;SDS011;2904;48.788;9.196;2022-08-19T14:18:42;30.58;;;22.73;;
5758;SDS011;2904;48.788;9.196;2022-08-19T14:21:14;31.23;;;22.50;;
5758;SDS011;2904;48.788;9.196;2022-08-19T14:23:42;28.08;;;21.27;;
5758;SDS011;2904;48.788;9.196;2022-08-19T14:26:08;29.37;;;20.83;;
5758;SDS011;2904;48.788;9.196;2022-08-19T14:28:36;27.98;;;21.00;;
5758;SDS011;2904;48.788;9.196;2022-08-19T14:31:04;28.50;;;20.90;;
5758;SDS011;2904;48.788;9.196;2022-08-19T14:33:30;29.60;;;20.55;;
5758;SDS011;2904;48.788;9.196;2022-08-19T14:35:55;27.80;;;19.80;;
5758;SDS011;2904;48.788;9.196;2022-08-19T14:38:21;28.15;;;19.37;;
5758;SDS011;2904;48.788;9.196;2022-08-19T14:40:46;25.17;;;18.73;;
5758;SDS011;2904;48.788;9.196;2022-08-19T14:43:13;25.08;;;18.42;;
5758;SDS011;2904;48.788;9.196;2022-08-19T14:45:39;26.23;;;18.40;;
5758;SDS011;2904;48.788;9.196;2022-08-19T14:48:05;23.33;;;17.98;;
5758;SDS011;2904;48.788;9.196;2022-08-19T14:50:33;24.05;;;18.08;;
5758;SDS011;2904;48.788;9.196;2022-08-19T14:53:00;24.30;;;18.73;;
5758;SDS011;2904;48.788;9.196;2022-08-19T14:55:27;24.55;;;18.40;;
5758;SDS011;2904;48.788;9.196;2022-08-19T14:57:52;23.02;;;18.08;;
5758;SDS011;2904;48.788;9.196;2022-08-19T15:00:18;22.40;;;17.45;;
5758;SDS011;2904;48.788;9.196;2022-08-19T15:02:44;25.42;;;18.80;;
5758;SDS011;2904;48.788;9.196;2022-08-19T15:05:10;27.48;;;17.45;;